Time;durP1;ratioP1;P1;durP2;ratioP2;P2;SDS_P1;SDS_P2;PMS_P1;PMS_P2;Temp;Humidity;BMP_temperature;BMP_pressure;BME280_temperature;BME280_humidity;BME280_pressure;Samples;Min_cycle;Max_cycle;Signal;HPM_P1;HPM_P2
2021/01/05 00:00:29;;;;;;;2.93;1.40;;;;;;;-144.99;100.00;52521.47;5053976;28;20643;-76
2021/01/05 00:02:55;;;;;;;3.73;2.43;;;;;;;-144.99;100.00;52562.25;5053165;28;20656;-78
2021/01/05 00:05:22;;;;;;;5.00;2.10;;;;;;;-144.99;100.00;52590.78;5057882;28;20655;-77
2021/01/05 00:07:48;;;;;;;4.87;2.73;;;;;;;-144.99;100.00;52582.63;5057122;28;20646;-78
2021/01/05 00:10:15;;;;;;;5.37;2.47;;;;;;;-144.99;100.00;52547.97;5055235;28;20654;-77
2021/01/05 00:12:42;;;;;;;4.00;2.27;;;;;;;-144.99;100.00;52550.00;5049428;28;20668;-77
2021/01/05 00:15:12;;;;;;;5.10;2.30;;;;;;;-144.99;100.00;52582.63;5050680;28;20667;-76
2021/01/05 00:17:38;;;;;;;4.63;2.47;;;;;;;-144.99;100.00;52576.50;5034791;28;20644;-73
2021/01/05 00:20:10;;;;;;;5.47;2.17;;;;;;;-144.99;100.00;52578.53;5043131;28;20636;-74
2021/01/05 00:22:36;;;;;;;2.43;2.20;;;;;;;-144.99;100.00;52598.94;5043588;28;21060;-76
2021/01/05 00:25:05;;;;;;;5.33;2.40;;;;;;;-144.99;100.00;52578.53;5054615;28;20612;-78
2021/01/05 00:27:31;;;;;;;4.83;2.63;;;;;;;-144.99;100.00;52590.78;5046592;28;20693;-76
2021/01/05 00:29:58;;;;;;;4.73;1.97;;;;;;;-144.99;100.00;52605.03;5052313;28;20642;-76
2021/01/05 00:32:25;;;;;;;4.07;2.07;;;;;;;-144.99;100.00;52574.47;5053205;28;20650;-76
2021/01/05 00:34:52;;;;;;;6.13;4.20;;;;;;;-144.99;100.00;52592.81;5041805;28;20628;-76
2021/01/05 00:37:19;;;;;;;5.53;3.70;;;;;;;-144.99;100.00;52586.69;5058591;28;20640;-76
2021/01/05 00:39:46;;;;;;;5.93;4.97;;;;;;;-144.99;100.00;52594.84;5049866;28;20697;-75
2021/01/05 00:42:13;;;;;;;6.87;4.60;;;;;;;-144.99;100.00;52586.69;5050102;28;20663;-75
2021/01/05 00:44:40;;;;;;;7.43;4.43;;;;;;;-144.99;100.00;52525.56;5053896;28;21297;-75
2021/01/05 00:47:07;;;;;;;7.77;3.63;;;;;;;-144.99;100.00;52564.28;5049858;28;20651;-75
2021/01/05 00:49:33;;;;;;;6.43;3.57;;;;;;;-144.99;100.00;52623.38;5049281;28;20624;-77
2021/01/05 00:51:59;;;;;;;5.83;3.93;;;;;;;-144.99;100.00;52566.31;5054213;28;21528;-75
2021/01/05 00:54:25;;;;;;;5.37;3.87;;;;;;;-144.99;100.00;52582.63;5049662;28;20647;-76
2021/01/05 00:56:59;;;;;;;6.70;4.50;;;;;;;-144.99;100.00;52598.94;5049665;28;21056;-76
2021/01/05 00:59:26;;;;;;;4.40;3.00;;;;;;;-144.99;100.00;52554.09;5066371;28;20627;-77
2021/01/05 01:01:52;;;;;;;4.47;3.43;;;;;;;-144.99;100.00;52578.53;5059532;28;20648;-74
2021/01/05 01:04:20;;;;;;;3.03;2.03;;;;;;;-144.99;100.00;52562.25;5048554;28;20686;-75
2021/01/05 01:06:46;;;;;;;2.60;2.13;;;;;;;-144.99;100.00;52570.38;5046249;28;20759;-74
2021/01/05 01:09:12;;;;;;;2.80;2.10;;;;;;;-144.99;100.00;52607.09;5043346;28;20628;-75
2021/01/05 01:11:38;;;;;;;3.03;1.87;;;;;;;-144.99;100.00;52590.78;5045883;28;20709;-76
2021/01/05 01:14:04;;;;;;;4.93;2.13;;;;;;;-144.99;100.00;52578.53;5048441;28;21302;-76
2021/01/05 01:16:31;;;;;;;3.50;2.27;;;;;;;-144.99;100.00;52566.31;5050379;28;20789;-75
2021/01/05 01:18:57;;;;;;;4.57;2.23;;;;;;;-144.99;100.00;52578.53;5045692;28;20794;-75
2021/01/05 01:21:24;;;;;;;2.47;1.70;;;;;;;-144.99;100.00;52582.63;5046288;28;20639;-75
2021/01/05 01:23:50;;;;;;;1.50;1.10;;;;;;;-144.99;100.00;52570.38;5042392;28;20701;-76
2021/01/05 01:26:16;;;;;;;2.73;1.83;;;;;;;-144.99;100.00;52517.41;5046096;28;20649;-75
2021/01/05 01:28:43;;;;;;;3.27;2.03;;;;;;;-144.99;100.00;52574.47;5044952;28;20934;-75
2021/01/05 01:31:09;;;;;;;2.70;1.60;;;;;;;-144.99;100.00;52562.25;5052740;28;20646;-75
2021/01/05 01:33:36;;;;;;;2.43;1.53;;;;;;;-144.99;100.00;52566.31;4700822;28;10000077;-75
2021/01/05 01:36:02;;;;;;;2.50;1.47;;;;;;;-144.99;100.00;52594.84;5053339;28;20628;-77
2021/01/05 01:38:29;;;;;;;4.80;2.03;;;;;;;-144.99;100.00;52574.47;5057104;28;20620;-79
2021/01/05 01:40:55;;;;;;;3.33;2.07;;;;;;;-144.99;100.00;52545.94;5043628;28;21272;-76
2021/01/05 01:43:21;;;;;;;2.43;1.87;;;;;;;-144.99;100.00;52558.16;5041568;28;20649;-76
2021/01/05 01:45:47;;;;;;;2.67;2.20;;;;;;;-144.99;100.00;52586.69;5049545;28;21038;-76
2021/01/05 01:48:14;;;;;;;2.87;2.33;;;;;;;-144.99;100.00;52541.84;5043324;28;20635;-75
2021/01/05 01:50:40;;;;;;;2.07;1.67;;;;;;;-144.99;100.00;52570.38;5042831;28;20620;-77
2021/01/05 01:53:51;;;;;;;2.43;1.40;;;;;;;-144.99;100.00;52554.09;5052594;28;20651;-76
2021/01/05 01:56:34;;;;;;;3.17;1.60;;;;;;;-144.99;100.00;52594.84;4995696;28;20635;-76
2021/01/05 01:59:15;;;;;;;2.97;2.23;;;;;;;-144.99;100.00;52550.00;5044303;28;20654;-76
2021/01/05 02:01:57;;;;;;;2.30;1.30;;;;;;;-144.99;100.00;52554.09;5055192;28;20644;-76
2021/01/05 02:04:47;;;;;;;3.47;1.90;;;;;;;-144.99;100.00;52541.84;5054048;28;20746;-76
2021/01/05 02:08:03;;;;;;;3.93;2.60;;;;;;;-144.99;100.00;52590.78;5053414;28;21012;-76
2021/01/05 02:10:54;;;;;;;3.43;1.73;;;;;;;-144.99;100.00;52562.25;4982313;28;20870;-75
2021/01/05 02:13:46;;;;;;;6.50;2.47;;;;;;;-144.99;100.00;52570.38;4993870;28;20655;-78
2021/01/05 02:16:26;;;;;;;3.83;2.40;;;;;;;-144.99;100.00;52541.84;5046822;28;20652;-75
2021/01/05 02:18:54;;;;;;;4.67;2.33;;;;;;;-144.99;100.00;52596.88;5059751;28;20608;-75
2021/01/05 02:21:23;;;;;;;3.83;2.20;;;;;;;-144.99;100.00;52586.69;5047890;28;20683;-75
2021/01/05 02:24:11;;;;;;;2.87;1.53;;;;;;;-144.99;100.00;52558.16;5057624;28;20727;-75
2021/01/05 02:26:43;;;;;;;2.30;1.77;;;;;;;-144.99;100.00;52586.69;5051138;28;20656;-75
2021/01/05 02:29:13;;;;;;;3.23;2.03;;;;;;;-144.99;100.00;52574.47;5054347;28;20644;-76
2021/01/05 02:31:51;;;;;;;2.53;1.67;;;;;;;-144.99;100.00;52586.69;5063355;28;20651;-75
2021/01/05 02:34:29;;;;;;;3.27;1.33;;;;;;;-144.99;100.00;52578.53;5049107;28;20647;-75
2021/01/05 02:37:29;;;;;;;3.77;1.77;;;;;;;-144.99;100.00;52552.03;5051506;28;20632;-75
2021/01/05 02:40:13;;;;;;;1.90;1.40;;;;;;;-144.99;100.00;52541.84;5054636;28;21177;-75
2021/01/05 02:43:05;;;;;;;2.47;1.63;;;;;;;-144.99;100.00;52566.31;5053573;28;20813;-74
2021/01/05 02:45:35;;;;;;;1.50;1.10;;;;;;;-144.99;100.00;52572.44;5049725;28;20660;-74
2021/01/05 02:48:17;;;;;;;2.40;1.80;;;;;;;-144.99;100.00;52552.03;5043127;28;20686;-75
2021/01/05 02:51:10;;;;;;;1.53;1.07;;;;;;;-144.99;100.00;52578.53;5047650;28;20667;-75
2021/01/05 02:54:06;;;;;;;4.27;2.07;;;;;;;-144.99;100.00;52564.28;5049860;28;20617;-74
2021/01/05 02:56:50;;;;;;;2.23;1.47;;;;;;;-144.99;100.00;52574.47;5039775;28;20619;-75
2021/01/05 03:00:02;;;;;;;1.87;1.40;;;;;;;-144.99;100.00;52598.94;5049549;28;20633;-74
2021/01/05 03:03:15;;;;;;;2.43;1.40;;;;;;;-144.99;100.00;52586.69;5027216;28;20671;-77
2021/01/05 03:05:45;;;;;;;3.60;2.30;;;;;;;-144.99;100.00;52554.09;5054766;28;21233;-77
2021/01/05 03:08:11;;;;;;;2.50;1.50;;;;;;;-144.99;100.00;52582.63;5047219;28;20644;-76
2021/01/05 03:10:48;;;;;;;1.87;1.33;;;;;;;-144.99;100.00;52562.25;5054977;28;20623;-76
2021/01/05 03:13:48;;;;;;;2.07;1.47;;;;;;;-144.99;100.00;52554.09;5047262;28;20695;-75
2021/01/05 03:16:21;;;;;;;3.20;1.47;;;;;;;-144.99;100.00;52582.63;5046957;28;21056;-75
2021/01/05 03:18:58;;;;;;;2.30;1.63;;;;;;;-144.99;100.00;52574.47;5058847;28;20630;-77
2021/01/05 03:21:27;;;;;;;1.47;1.13;;;;;;;-144.99;100.00;52574.47;5045475;28;20640;-75
2021/01/05 03:24:00;;;;;;;1.33;1.10;;;;;;;-144.99;100.00;52578.53;5048648;28;20701;-75
2021/01/05 03:26:42;;;;;;;0.80;0.80;;;;;;;-144.99;100.00;52584.66;5058072;28;20695;-76
2021/01/05 03:29:09;;;;;;;2.60;1.17;;;;;;;-144.99;100.00;52576.50;5045069;28;20628;-76
2021/01/05 03:31:40;;;;;;;1.53;1.27;;;;;;;-144.99;100.00;52547.97;5060634;28;20671;-77
2021/01/05 03:34:07;;;;;;;2.20;1.23;;;;;;;-144.99;100.00;52594.84;5063142;28;20628;-74
2021/01/05 03:36:36;;;;;;;1.77;0.90;;;;;;;-144.99;100.00;52582.63;5048319;28;21049;-75
2021/01/05 03:39:03;;;;;;;1.93;1.20;;;;;;;-144.99;100.00;52545.94;5049623;28;20624;-76
2021/01/05 03:41:30;;;;;;;1.53;1.07;;;;;;;-144.99;100.00;52558.16;5053561;28;20658;-76
2021/01/05 03:43:56;;;;;;;1.93;1.43;;;;;;;-144.99;100.00;52547.97;5049321;28;21024;-74
2021/01/05 03:46:26;;;;;;;2.17;1.07;;;;;;;-144.99;100.00;52594.84;5049751;28;20662;-76
2021/01/05 03:48:54;;;;;;;1.83;1.20;;;;;;;-144.99;100.00;52586.69;5035326;28;20613;-75
2021/01/05 03:51:20;;;;;;;2.27;1.93;;;;;;;-144.99;100.00;52611.16;5044852;28;20623;-74
2021/01/05 03:53:46;;;;;;;3.10;1.23;;;;;;;-144.99;100.00;52566.31;5047726;28;20643;-75
2021/01/05 03:56:12;;;;;;;1.10;0.80;;;;;;;-144.99;100.00;52537.78;5043673;28;20648;-75
2021/01/05 03:58:38;;;;;;;1.20;0.93;;;;;;;-144.99;100.00;52552.03;5044942;28;20724;-74
2021/01/05 04:01:05;;;;;;;1.30;0.90;;;;;;;-144.99;100.00;52582.63;5043087;28;20644;-74
2021/01/05 04:03:34;;;;;;;1.03;0.80;;;;;;;-144.99;100.00;52570.38;5068381;28;20635;-76
2021/01/05 04:06:01;;;;;;;2.13;1.23;;;;;;;-144.99;100.00;52582.63;5065595;28;20841;-74
2021/01/05 04:08:29;;;;;;;1.67;0.80;;;;;;;-144.99;100.00;52554.09;5051247;28;20674;-74
2021/01/05 04:10:55;;;;;;;1.33;0.67;;;;;;;-144.99;100.00;52513.31;5049840;28;21191;-75
2021/01/05 04:13:21;;;;;;;1.50;1.30;;;;;;;-144.99;100.00;52570.38;5044308;28;21208;-74
2021/01/05 04:15:47;;;;;;;3.10;1.43;;;;;;;-144.99;100.00;52582.63;5050316;28;20628;-75
2021/01/05 04:18:13;;;;;;;1.97;1.27;;;;;;;-144.99;100.00;52574.47;5046314;28;20627;-76
2021/01/05 04:20:40;;;;;;;1.10;0.90;;;;;;;-144.99;100.00;52572.44;5047410;28;20672;-74
2021/01/05 04:23:07;;;;;;;1.70;1.10;;;;;;;-144.99;100.00;52562.25;5041825;28;20675;-74
2021/01/05 04:25:33;;;;;;;1.40;0.97;;;;;;;-144.99;100.00;52556.13;5046891;28;20683;-72
2021/01/05 04:27:59;;;;;;;1.50;0.97;;;;;;;-144.99;100.00;52556.13;5053046;28;21184;-73
2021/01/05 04:30:29;;;;;;;1.03;0.93;;;;;;;-144.99;100.00;52611.16;5051487;28;20632;-75
2021/01/05 04:32:58;;;;;;;1.57;1.07;;;;;;;-144.99;100.00;52582.63;5057789;28;20919;-74
2021/01/05 04:35:25;;;;;;;0.73;0.60;;;;;;;-144.99;100.00;52578.53;5049757;28;20602;-74
2021/01/05 04:37:53;;;;;;;1.47;1.00;;;;;;;-144.99;100.00;52594.84;5055994;28;21427;-74
2021/01/05 04:40:30;;;;;;;1.77;1.00;;;;;;;-144.99;100.00;52578.53;5065508;28;20600;-77
2021/01/05 04:43:17;;;;;;;2.57;1.10;;;;;;;-144.99;100.00;52578.53;5050115;28;20763;-73
2021/01/05 04:45:52;;;;;;;2.80;1.10;;;;;;;-144.99;100.00;52541.84;5057041;28;20653;-73
2021/01/05 04:48:37;;;;;;;1.67;0.87;;;;;;;-144.99;100.00;52562.25;5042321;28;20623;-74
2021/01/05 04:51:12;;;;;;;1.73;0.80;;;;;;;-144.99;100.00;52572.44;5039143;28;20612;-74
2021/01/05 04:53:44;;;;;;;1.73;0.93;;;;;;;-144.99;100.00;52533.69;5042813;28;20686;-74
2021/01/05 04:56:13;;;;;;;2.33;1.20;;;;;;;-144.99;100.00;52554.09;5060066;28;20646;-74
2021/01/05 04:58:46;;;;;;;1.43;0.73;;;;;;;-144.99;100.00;52541.84;5050594;28;21264;-74
2021/01/05 05:01:17;;;;;;;1.00;0.70;;;;;;;-144.99;100.00;52598.94;5053912;28;20613;-74
2021/01/05 05:03:55;;;;;;;1.40;1.07;;;;;;;-144.99;100.00;52588.75;5056441;28;21181;-74
2021/01/05 05:06:29;;;;;;;1.57;1.00;;;;;;;-144.99;100.00;52566.31;5056995;28;20666;-76
2021/01/05 05:09:14;;;;;;;1.37;1.00;;;;;;;-144.99;100.00;52545.94;5054021;28;20603;-75
2021/01/05 05:11:54;;;;;;;1.20;0.77;;;;;;;-144.99;100.00;52554.09;5051117;28;20648;-76
2021/01/05 05:14:40;;;;;;;1.67;1.00;;;;;;;-144.99;100.00;52580.59;5052427;28;20619;-77
2021/01/05 05:17:35;;;;;;;1.10;1.00;;;;;;;-144.99;100.00;52545.94;5047515;28;20624;-76
2021/01/05 05:20:17;;;;;;;0.87;0.73;;;;;;;-144.99;100.00;52562.25;5051184;28;20705;-76
2021/01/05 05:22:52;;;;;;;0.90;0.60;;;;;;;-144.99;100.00;52586.69;5086413;22;20724;-78
2021/01/05 05:25:24;;;;;;;2.23;1.17;;;;;;;-144.99;100.00;52578.53;5070774;28;21272;-78
2021/01/05 05:28:01;;;;;;;0.73;0.73;;;;;;;-144.99;100.00;52547.97;5065706;28;20751;-78
2021/01/05 05:30:33;;;;;;;2.40;1.37;;;;;;;-144.99;100.00;52607.09;5066164;28;20729;-76
2021/01/05 05:33:01;;;;;;;2.07;1.30;;;;;;;-144.99;100.00;52537.78;5065630;28;20656;-77
2021/01/05 05:36:04;;;;;;;1.57;1.13;;;;;;;-144.99;100.00;52603.00;5054710;28;20681;-77
2021/01/05 05:38:42;;;;;;;1.57;0.90;;;;;;;-144.99;100.00;52578.53;5052708;28;20722;-77
2021/01/05 05:41:23;;;;;;;3.73;1.30;;;;;;;-144.99;100.00;52550.00;5053008;28;20666;-76
2021/01/05 05:44:05;;;;;;;2.93;1.37;;;;;;;-144.99;100.00;52590.78;5044970;28;20739;-77
2021/01/05 05:46:37;;;;;;;1.57;0.90;;;;;;;-144.99;100.00;52531.66;5056557;28;20650;-77
2021/01/05 05:49:14;;;;;;;2.07;1.20;;;;;;;-144.99;100.00;52550.00;5058259;28;20719;-81
2021/01/05 05:51:45;;;;;;;2.70;1.60;;;;;;;-144.99;100.00;52570.38;5055176;28;20638;-79
2021/01/05 05:54:16;;;;;;;1.87;1.40;;;;;;;-144.99;100.00;52590.78;5044254;28;20756;-76
2021/01/05 05:56:59;;;;;;;1.10;0.80;;;;;;;-144.99;100.00;52558.16;5057432;28;20660;-76
2021/01/05 05:59:37;;;;;;;3.50;1.40;;;;;;;-144.99;100.00;52545.94;5046866;28;20950;-77
2021/01/05 06:02:04;;;;;;;1.90;1.53;;;;;;;-144.99;100.00;52513.31;5056325;28;21037;-77
2021/01/05 06:04:33;;;;;;;2.90;1.27;;;;;;;-144.99;100.00;52572.44;5046947;28;20632;-77
2021/01/05 06:06:59;;;;;;;2.33;1.33;;;;;;;-144.99;100.00;52545.94;5050678;28;20666;-76
2021/01/05 06:09:25;;;;;;;2.50;1.33;;;;;;;-144.99;100.00;52564.28;5050304;28;20957;-77
2021/01/05 06:11:52;;;;;;;2.37;1.30;;;;;;;-144.99;100.00;52554.09;5061673;28;20637;-78
2021/01/05 06:14:21;;;;;;;2.07;1.17;;;;;;;-144.99;100.00;52568.34;5047564;28;20639;-78
2021/01/05 06:16:48;;;;;;;2.40;1.17;;;;;;;-144.99;100.00;52541.84;5053622;28;21845;-78
2021/01/05 06:19:14;;;;;;;2.67;1.67;;;;;;;-144.99;100.00;52558.16;5060286;28;20719;-78
2021/01/05 06:21:42;;;;;;;2.33;1.70;;;;;;;-144.99;100.00;52543.91;5068464;28;20615;-78
2021/01/05 06:24:08;;;;;;;1.67;1.40;;;;;;;-144.99;100.00;52562.25;5054420;28;21234;-77
2021/01/05 06:26:35;;;;;;;2.87;1.43;;;;;;;-144.99;100.00;52598.94;5044368;28;21116;-78
2021/01/05 06:29:01;;;;;;;1.70;1.20;;;;;;;-144.99;100.00;52590.78;5043208;28;20658;-78
2021/01/05 06:31:27;;;;;;;1.70;1.20;;;;;;;-144.99;100.00;52537.78;5068415;28;20611;-77
2021/01/05 06:33:54;;;;;;;1.33;0.90;;;;;;;-144.99;100.00;52582.63;5043936;28;20763;-77
2021/01/05 06:36:20;;;;;;;1.93;1.30;;;;;;;-144.99;100.00;52619.31;5059966;28;20619;-77
2021/01/05 06:38:49;;;;;;;2.23;1.40;;;;;;;-144.99;100.00;52590.78;5043128;28;20687;-77
2021/01/05 06:41:15;;;;;;;1.97;0.90;;;;;;;-144.99;100.00;52554.09;5058876;28;20627;-77
2021/01/05 06:43:41;;;;;;;2.47;1.40;;;;;;;-144.99;100.00;52578.53;5055820;28;20656;-78
2021/01/05 06:46:11;;;;;;;1.67;1.10;;;;;;;-144.99;100.00;52598.94;5060261;28;20700;-77
2021/01/05 06:48:37;;;;;;;3.23;1.57;;;;;;;-144.99;100.00;52603.00;5046313;28;20679;-77
2021/01/05 06:51:05;;;;;;;2.77;1.10;;;;;;;-144.99;100.00;52566.31;5050509;28;20655;-76
2021/01/05 06:53:31;;;;;;;3.00;1.57;;;;;;;-144.99;100.00;52578.53;5066466;28;20659;-78
2021/01/05 06:55:57;;;;;;;1.90;1.07;;;;;;;-144.99;100.00;52550.00;5053641;28;20630;-79
2021/01/05 06:58:23;;;;;;;3.37;0.97;;;;;;;-144.99;100.00;52554.09;5065777;28;20641;-78
2021/01/05 07:00:49;;;;;;;2.57;1.80;;;;;;;-144.99;100.00;52611.16;5055532;28;20627;-78
2021/01/05 07:03:15;;;;;;;1.47;1.07;;;;;;;-144.99;100.00;52586.69;5054954;28;20820;-77
2021/01/05 07:05:41;;;;;;;1.53;1.23;;;;;;;-144.99;100.00;52554.09;5042306;28;21201;-78
2021/01/05 07:08:08;;;;;;;1.73;0.97;;;;;;;-144.99;100.00;52521.47;5045028;28;20624;-78
2021/01/05 07:10:35;;;;;;;1.47;1.03;;;;;;;-144.99;100.00;52570.38;5044988;28;20637;-79
2021/01/05 07:13:01;;;;;;;1.63;1.23;;;;;;;-144.99;100.00;52554.09;5047077;28;20697;-80
2021/01/05 07:15:27;;;;;;;1.30;0.97;;;;;;;-144.99;100.00;52594.84;5040700;28;20785;-79
2021/01/05 07:17:53;;;;;;;1.47;1.03;;;;;;;-144.99;100.00;52594.84;5054737;28;20652;-79
2021/01/05 07:20:19;;;;;;;1.40;1.03;;;;;;;-144.99;100.00;52541.84;5053242;28;20774;-77
2021/01/05 07:22:45;;;;;;;1.77;1.10;;;;;;;-144.99;100.00;52554.09;5061105;28;21021;-79
2021/01/05 07:25:15;;;;;;;1.43;0.87;;;;;;;-144.99;100.00;52570.38;5049337;28;20660;-78
2021/01/05 07:27:41;;;;;;;2.73;1.23;;;;;;;-144.99;100.00;52582.63;5043135;28;20648;-79
2021/01/05 07:30:09;;;;;;;2.03;1.20;;;;;;;-144.99;100.00;52541.84;5052005;28;20659;-77
2021/01/05 07:32:36;;;;;;;0.87;0.73;;;;;;;-144.99;100.00;52543.91;5054880;28;20694;-78
2021/01/05 07:35:03;;;;;;;1.57;0.97;;;;;;;-144.99;100.00;52603.00;5050535;28;20693;-79
2021/01/05 07:37:34;;;;;;;0.97;0.73;;;;;;;-144.99;100.00;52572.44;5041045;28;20624;-78
2021/01/05 07:40:00;;;;;;;3.17;1.47;;;;;;;-144.99;100.00;52570.38;5060661;28;20647;-77
2021/01/05 07:42:29;;;;;;;1.77;1.10;;;;;;;-144.99;100.00;52539.81;5060314;28;20652;-77
2021/01/05 07:44:57;;;;;;;3.80;1.43;;;;;;;-144.99;100.00;52545.94;5064114;28;21259;-78
2021/01/05 07:47:27;;;;;;;1.07;0.80;;;;;;;-144.99;100.00;52566.31;5069668;28;20712;-78
2021/01/05 07:49:53;;;;;;;1.87;1.13;;;;;;;-144.99;100.00;52550.00;5039985;28;21200;-77
2021/01/05 07:52:23;;;;;;;3.20;1.10;;;;;;;-144.99;100.00;52570.38;5068246;28;20662;-78
2021/01/05 07:54:49;;;;;;;1.50;1.00;;;;;;;-144.99;100.00;52541.84;5065023;28;20631;-78
2021/01/05 07:57:16;;;;;;;2.67;1.47;;;;;;;-144.99;100.00;52525.56;5057347;28;20651;-79
2021/01/05 07:59:43;;;;;;;1.73;0.90;;;;;;;-144.99;100.00;52611.16;5059261;28;20629;-79
2021/01/05 08:02:10;;;;;;;1.97;1.43;;;;;;;-144.99;100.00;52598.94;5058136;28;20660;-79
2021/01/05 08:04:39;;;;;;;2.93;1.17;;;;;;;-144.99;100.00;52566.31;5049641;28;21193;-75
2021/01/05 08:07:06;;;;;;;1.37;1.03;;;;;;;-144.99;100.00;52525.56;5050638;28;20750;-75
2021/01/05 08:09:33;;;;;;;1.00;0.83;;;;;;;-144.99;100.00;52537.78;5039239;28;20621;-76
2021/01/05 08:11:59;;;;;;;2.87;1.43;;;;;;;-144.99;100.00;52554.09;5062466;28;20631;-78
2021/01/05 08:14:26;;;;;;;1.87;1.40;;;;;;;-144.99;100.00;52558.16;5044225;28;20722;-79
2021/01/05 08:16:53;;;;;;;2.20;1.20;;;;;;;-144.99;100.00;52603.00;5062768;28;20984;-78
2021/01/05 08:19:19;;;;;;;4.97;1.43;;;;;;;-144.99;100.00;52562.25;5054748;28;20714;-79
2021/01/05 08:21:45;;;;;;;1.47;1.10;;;;;;;-144.99;100.00;52554.09;5045122;28;21170;-79
2021/01/05 08:24:11;;;;;;;1.47;1.30;;;;;;;-144.99;100.00;52570.38;5055171;28;20635;-77
2021/01/05 08:26:39;;;;;;;3.03;1.13;;;;;;;-144.99;100.00;52533.69;5052192;28;20660;-79
2021/01/05 08:29:05;;;;;;;2.70;1.13;;;;;;;-144.99;100.00;52598.94;5052636;28;20654;-78
2021/01/05 08:31:33;;;;;;;1.53;0.93;;;;;;;-144.99;100.00;52566.31;5054795;28;20672;-76
2021/01/05 08:34:01;;;;;;;1.30;1.00;;;;;;;-144.99;100.00;52590.78;5059851;28;20687;-78
2021/01/05 08:36:28;;;;;;;1.63;0.77;;;;;;;-144.99;100.00;52541.84;5050724;28;20629;-77
2021/01/05 08:38:54;;;;;;;0.90;0.80;;;;;;;-144.99;100.00;52556.13;5062032;28;21270;-76
2021/01/05 08:41:20;;;;;;;1.73;0.80;;;;;;;-144.99;100.00;52550.00;5063981;28;20631;-78
2021/01/05 08:43:47;;;;;;;1.23;0.70;;;;;;;-144.99;100.00;52566.31;5040834;28;20684;-77
2021/01/05 08:46:20;;;;;;;1.53;0.83;;;;;;;-144.99;100.00;52501.09;5047237;28;20702;-77
2021/01/05 08:48:46;;;;;;;2.17;0.97;;;;;;;-144.99;100.00;52541.84;5059948;28;20707;-76
2021/01/05 08:51:15;;;;;;;2.17;1.03;;;;;;;-144.99;100.00;52594.84;5056128;28;20630;-78
2021/01/05 08:53:42;;;;;;;2.03;1.50;;;;;;;-144.99;100.00;52537.78;5055613;28;20637;-78
2021/01/05 08:56:15;;;;;;;2.00;1.10;;;;;;;-144.99;100.00;52574.47;5071532;28;20628;-77
2021/01/05 08:58:41;;;;;;;3.13;0.73;;;;;;;-144.99;100.00;52562.25;5073417;28;20628;-78
2021/01/05 09:01:07;;;;;;;2.37;1.17;;;;;;;-144.99;100.00;52598.94;5076631;28;20630;-80
2021/01/05 09:03:33;;;;;;;1.63;0.80;;;;;;;-144.99;100.00;52554.09;5060542;28;20691;-81
2021/01/05 09:06:00;;;;;;;2.30;0.87;;;;;;;-144.99;100.00;52537.78;5061905;28;20631;-81
2021/01/05 09:08:30;;;;;;;2.63;1.17;;;;;;;-144.99;100.00;52564.28;5050103;28;20631;-79
2021/01/05 09:10:58;;;;;;;2.30;1.27;;;;;;;-144.99;100.00;52529.63;5074202;28;20645;-78
2021/01/05 09:13:24;;;;;;;2.73;1.47;;;;;;;-144.99;100.00;52556.13;5050802;28;20659;-79
2021/01/05 09:15:51;;;;;;;2.67;1.30;;;;;;;-144.99;100.00;52564.28;5054241;28;20738;-78
2021/01/05 09:18:21;;;;;;;3.27;1.87;;;;;;;-144.99;100.00;52586.69;5033645;28;20986;-76
2021/01/05 09:20:52;;;;;;;2.90;1.37;;;;;;;-144.99;100.00;52550.00;5038674;28;20781;-77
2021/01/05 09:23:21;;;;;;;0.70;0.70;;;;;;;-144.99;100.00;52582.63;5051777;28;20704;-78
2021/01/05 09:25:50;;;;;;;5.77;1.70;;;;;;;-144.99;100.00;52558.16;5050477;28;20676;-78
2021/01/05 09:28:17;;;;;;;3.93;1.53;;;;;;;-144.99;100.00;52517.41;5039289;28;20647;-79
2021/01/05 09:30:45;;;;;;;3.17;1.67;;;;;;;-144.99;100.00;52578.53;5060125;28;21007;-78
2021/01/05 09:33:12;;;;;;;2.63;1.63;;;;;;;-144.99;100.00;52556.13;5059652;28;20648;-79
2021/01/05 09:35:38;;;;;;;2.27;1.40;;;;;;;-144.99;100.00;52541.84;5055616;28;20677;-79
2021/01/05 09:38:08;;;;;;;2.97;1.73;;;;;;;-144.99;100.00;52570.38;5054125;28;20623;-76
2021/01/05 09:40:35;;;;;;;3.13;1.70;;;;;;;-144.99;100.00;52550.00;5048032;28;21025;-76
2021/01/05 09:43:02;;;;;;;2.33;1.47;;;;;;;-144.99;100.00;52570.38;5035216;28;20661;-78
2021/01/05 09:45:29;;;;;;;2.20;1.77;;;;;;;-144.99;100.00;52566.31;5055725;28;20682;-79
2021/01/05 09:48:03;;;;;;;3.63;1.23;;;;;;;-144.99;100.00;52545.94;5043288;28;20679;-79
2021/01/05 09:50:29;;;;;;;2.37;1.70;;;;;;;-144.99;100.00;52560.19;5043239;28;20763;-78
2021/01/05 09:52:56;;;;;;;2.83;1.93;;;;;;;-144.99;100.00;52529.63;5059713;28;20736;-79
2021/01/05 09:55:25;;;;;;;1.73;1.27;;;;;;;-144.99;100.00;52545.94;5034975;28;20629;-79
2021/01/05 09:57:52;;;;;;;2.67;2.23;;;;;;;-144.99;100.00;52558.16;5040232;28;20627;-79
2021/01/05 10:00:21;;;;;;;2.37;1.50;;;;;;;-144.99;100.00;52598.94;5057900;28;20938;-81
2021/01/05 10:02:47;;;;;;;3.27;1.23;;;;;;;-144.99;100.00;52550.00;5057669;28;20648;-79
2021/01/05 10:05:14;;;;;;;6.13;3.30;;;;;;;-144.99;100.00;52586.69;5051715;28;20623;-79
2021/01/05 10:07:40;;;;;;;1.47;0.97;;;;;;;-144.99;100.00;52545.94;5051224;28;21217;-74
2021/01/05 10:10:09;;;;;;;4.03;1.93;;;;;;;-144.99;100.00;52531.66;5031793;28;20640;-75
2021/01/05 10:12:35;;;;;;;3.80;1.60;;;;;;;-144.99;100.00;52578.53;5038677;28;21038;-75
2021/01/05 10:15:02;;;;;;;2.63;1.37;;;;;;;-144.99;100.00;52576.50;5052126;28;20616;-76
2021/01/05 10:17:29;;;;;;;1.73;1.07;;;;;;;-144.99;100.00;52556.13;5037210;28;20676;-77
2021/01/05 10:19:56;;;;;;;1.93;1.13;;;;;;;-144.99;100.00;52566.31;5037394;28;21200;-77
2021/01/05 10:22:23;;;;;;;1.20;1.10;;;;;;;-144.99;100.00;52617.28;5050941;28;21305;-77
2021/01/05 10:24:49;;;;;;;2.67;1.03;;;;;;;-144.99;100.00;52594.84;5051700;28;20620;-76
2021/01/05 10:27:15;;;;;;;2.03;1.47;;;;;;;-144.99;100.00;52554.09;5036521;28;20645;-75
2021/01/05 10:29:41;;;;;;;2.17;1.00;;;;;;;-144.99;100.00;52552.03;5037879;28;20632;-76
2021/01/05 10:32:08;;;;;;;1.53;1.00;;;;;;;-144.99;100.00;52513.31;5037896;28;20730;-76
2021/01/05 10:34:35;;;;;;;1.57;1.13;;;;;;;-144.99;100.00;52550.00;5041831;28;20623;-77
2021/01/05 10:37:01;;;;;;;2.40;1.27;;;;;;;-144.99;100.00;52529.63;5044622;28;21157;-76
2021/01/05 10:39:29;;;;;;;1.63;1.00;;;;;;;-144.99;100.00;52556.13;5032837;28;20617;-79
2021/01/05 10:41:55;;;;;;;1.07;0.97;;;;;;;-144.99;100.00;52570.38;5034714;28;20632;-78
2021/01/05 10:44:23;;;;;;;1.90;1.20;;;;;;;-144.99;100.00;52521.47;5046874;28;21222;-76
2021/01/05 10:46:50;;;;;;;1.83;1.43;;;;;;;-144.99;100.00;52566.31;5046364;28;20794;-76
2021/01/05 10:49:17;;;;;;;1.67;1.20;;;;;;;-144.99;100.00;52570.38;5043347;28;20635;-75
2021/01/05 10:51:48;;;;;;;3.80;1.00;;;;;;;-144.99;100.00;52570.38;5034098;28;20645;-77
2021/01/05 10:54:16;;;;;;;2.53;1.47;;;;;;;-144.99;100.00;52558.16;5032009;28;20628;-76
2021/01/05 10:56:44;;;;;;;3.00;1.00;;;;;;;-144.99;100.00;52558.16;5033613;28;20620;-76
2021/01/05 10:59:11;;;;;;;1.80;1.10;;;;;;;-144.99;100.00;52592.81;5040201;28;20639;-76
2021/01/05 11:01:37;;;;;;;3.13;1.10;;;;;;;-144.99;100.00;52525.56;5040882;28;20613;-75
2021/01/05 11:04:03;;;;;;;1.10;1.00;;;;;;;-144.99;100.00;52505.16;5040620;28;21256;-75
2021/01/05 11:06:32;;;;;;;1.57;1.00;;;;;;;-144.99;100.00;52584.66;5046575;28;20690;-77
2021/01/05 11:09:01;;;;;;;1.90;1.07;;;;;;;-144.99;100.00;52568.34;5041810;28;20655;-78
2021/01/05 11:11:27;;;;;;;1.93;0.97;;;;;;;-144.99;100.00;52554.09;5031988;28;20624;-78
2021/01/05 11:13:53;;;;;;;1.87;1.13;;;;;;;-144.99;100.00;52562.25;5037900;28;20732;-77
2021/01/05 11:16:19;;;;;;;2.47;1.30;;;;;;;-144.99;100.00;52582.63;5031303;28;21037;-78
2021/01/05 11:18:45;;;;;;;2.50;1.70;;;;;;;-144.99;100.00;52578.53;5036263;28;20700;-75
2021/01/05 11:21:12;;;;;;;2.17;0.93;;;;;;;-144.99;100.00;52560.19;5045367;28;20628;-78
2021/01/05 11:23:39;;;;;;;2.00;1.00;;;;;;;-144.99;100.00;52550.00;5035541;28;20656;-77